Time;durP1;ratioP1;P1;durP2;ratioP2;P2;SDS_P1;SDS_P2;PMS_P1;PMS_P2;Temp;Humidity;BMP_temperature;BMP_pressure;BME280_temperature;BME280_humidity;BME280_pressure;Samples;Min_cycle;Max_cycle;Signal;HPM_P1;HPM_P2
2022/04/14 00:01:19;;;;;;;2.97;1.50;;;;;;;;;;20829725;28;20269;-66
2022/04/14 00:11:21;;;;;;;2.70;1.80;;;;;;;;;;20798853;28;20250;-67
2022/04/14 00:21:23;;;;;;;3.93;1.93;;;;;;;;;;20786820;28;20267;-67
2022/04/14 00:31:25;;;;;;;3.30;1.90;;;;;;;;;;20831573;28;20226;-66
2022/04/14 00:41:29;;;;;;;6.10;2.60;;;;;;;;;;20862249;28;20575;-66
2022/04/14 00:51:31;;;;;;;6.93;2.90;;;;;;;;;;20861747;28;20248;-66
2022/04/14 01:01:33;;;;;;;4.23;3.23;;;;;;;;;;20861505;28;20210;-66
2022/04/14 01:11:36;;;;;;;5.07;3.33;;;;;;;;;;20860467;28;20700;-66
2022/04/14 01:21:41;;;;;;;5.97;3.93;;;17.50;99.90;;;;;;20891817;28;20209;-66
2022/04/14 01:31:43;;;;;;;6.50;3.77;;;17.50;99.90;;;;;;20812817;28;20226;-66
2022/04/14 01:41:45;;;;;;;4.87;3.53;;;;;;;;;;20792496;28;20229;-66
2022/04/14 01:51:50;;;;;;;5.07;3.47;;;;;;;;;;20817543;28;20280;-66
2022/04/14 02:01:51;;;;;;;4.73;3.70;;;;;;;;;;20850258;28;20227;-66
2022/04/14 02:11:53;;;;;;;6.43;4.43;;;;;;;;;;20843195;28;20292;-66
2022/04/14 02:21:58;;;;;;;7.50;4.60;;;;;;;;;;20856040;28;20210;-66
2022/04/14 02:32:00;;;;;;;7.20;4.27;;;;;;;;;;20848178;28;20230;-66
2022/04/14 02:42:05;;;;;;;11.17;4.57;;;;;;;;;;20786886;28;20690;-66
2022/04/14 02:52:07;;;;;;;5.50;4.30;;;;;;;;;;20789065;28;20226;-66
2022/04/14 03:02:09;;;;;;;5.63;4.50;;;;;;;;;;20788665;28;20230;-66
2022/04/14 03:12:12;;;;;;;5.57;4.47;;;;;;;;;;20803379;28;20218;-66
2022/04/14 03:22:13;;;;;;;6.47;4.43;;;;;;;;;;20803358;28;20681;-67
2022/04/14 03:32:15;;;;;;;7.83;5.00;;;;;;;;;;20805014;28;20752;-67
2022/04/14 03:42:17;;;;;;;8.77;5.70;;;;;;;;;;20801497;28;20218;-67
2022/04/14 03:52:20;;;;;;;7.53;4.50;;;;;;;;;;20790825;28;20296;-67
2022/04/14 04:02:22;;;;;;;7.13;4.93;;;;;;;;;;20852850;28;20214;-67
2022/04/14 04:12:24;;;;;;;6.33;4.23;;;16.40;99.90;;;;;;20815649;28;20222;-67
2022/04/14 04:22:26;;;;;;;6.70;4.53;;;;;;;;;;20765570;28;20206;-67
2022/04/14 04:32:28;;;;;;;5.23;3.43;;;;;;;;;;20787635;28;20223;-67
2022/04/14 04:42:31;;;;;;;6.20;4.67;;;;;;;;;;20859698;28;20268;-67
2022/04/14 04:52:33;;;;;;;8.00;4.57;;;16.10;99.90;;;;;;20834580;28;20217;-66
2022/04/14 05:02:35;;;;;;;6.23;4.50;;;;;;;;;;20762416;28;20581;-67
2022/04/14 05:12:37;;;;;;;6.70;4.27;;;;;;;;;;20778156;28;20300;-67
2022/04/14 05:22:39;;;;;;;7.27;4.87;;;;;;;;;;20799588;28;20560;-67
2022/04/14 05:32:41;;;;;;;9.23;4.90;;;;;;;;;;20866693;28;20275;-67
2022/04/14 05:42:46;;;;;;;8.30;4.83;;;;;;;;;;20853801;28;20268;-67
2022/04/14 05:52:48;;;;;;;5.87;4.07;;;;;;;;;;20833372;28;20635;-67
2022/04/14 06:02:49;;;;;;;7.10;4.27;;;;;;;;;;20836670;28;20210;-67
2022/04/14 06:12:52;;;;;;;5.23;3.83;;;18.80;99.90;;;;;;20838718;28;20230;-67
2022/04/14 06:22:56;;;;;;;9.23;4.37;;;16.60;99.90;;;;;;20838805;28;20241;-67
2022/04/14 06:33:00;;;;;;;5.00;4.10;;;16.60;99.90;;;;;;20861823;28;20226;-67
2022/04/14 06:43:02;;;;;;;6.90;4.17;;;16.80;99.90;;;;;;20849173;28;20238;-67
2022/04/14 06:53:05;;;;;;;6.00;4.00;;;;;;;;;;20834611;28;20260;-67
2022/04/14 07:03:07;;;;;;;7.10;4.63;;;;;;;;;;20836141;28;20271;-67
2022/04/14 07:13:09;;;;;;;6.20;4.17;;;;;;;;;;20879110;28;20300;-68
2022/04/14 07:23:11;;;;;;;5.33;3.80;;;;;;;;;;20816886;28;20916;-67
2022/04/14 07:33:13;;;;;;;6.07;4.10;;;;;;;;;;20867032;28;20221;-67
2022/04/14 07:43:15;;;;;;;5.07;3.73;;;;;;;;;;20866168;28;20573;-67
2022/04/14 07:53:17;;;;;;;5.90;3.83;;;;;;;;;;20844113;28;20214;-67
2022/04/14 08:03:19;;;;;;;6.03;4.07;;;;;;;;;;20862511;28;20552;-67
2022/04/14 08:13:21;;;;;;;5.47;3.60;;;;;;;;;;20879883;28;20597;-67
2022/04/14 08:23:23;;;;;;;5.03;3.73;;;;;;;;;;20862767;28;20256;-67
2022/04/14 08:33:25;;;;;;;7.97;4.40;;;;;;;;;;20862426;28;20294;-67
2022/04/14 08:43:35;;;;;;;6.77;4.07;;;17.30;99.90;;;;;;20877917;28;20222;-67
2022/04/14 08:53:38;;;;;;;6.17;4.40;;;17.60;99.90;;;;;;20861232;28;20680;-67
2022/04/14 09:03:42;;;;;;;7.50;4.97;;;;;;;;;;20829273;28;20217;-67
2022/04/14 09:13:45;;;;;;;8.67;5.10;;;;;;;;;;20823271;28;20694;-67
2022/04/14 09:23:54;;;;;;;7.80;4.50;;;19.00;99.90;;;;;;20842110;28;20755;-67
2022/04/14 09:33:56;;;;;;;7.10;4.53;;;19.70;99.90;;;;;;20858681;28;20264;-67
2022/04/14 09:44:04;;;;;;;5.97;4.10;;;16.80;99.90;;;;;;20780711;28;20596;-67
2022/04/14 09:54:15;;;;;;;5.90;4.43;;;19.80;99.90;;;;;;20800390;28;20277;-66
2022/04/14 10:04:34;;;;;;;8.13;4.00;;;20.20;99.90;;;;;;20830815;28;20246;-67
2022/04/14 10:14:36;;;;;;;6.20;4.60;;;;;;;;;;20788654;28;20225;-67
2022/04/14 10:24:39;;;;;;;5.47;4.07;;;;;;;;;;20788677;28;20217;-67
2022/04/14 10:34:41;;;;;;;4.57;3.57;;;;;;;;;;20788440;28;20255;-67
2022/04/14 10:44:46;;;;;;;5.10;3.60;;;21.20;99.90;;;;;;20788418;28;20209;-67
2022/04/14 10:54:57;;;;;;;4.23;3.07;;;;;;;;;;20803731;28;20693;-67
2022/04/14 11:04:59;;;;;;;3.97;2.23;;;;;;;;;;20787131;28;20676;-67
2022/04/14 11:15:08;;;;;;;3.27;1.87;;;;;;;;;;20787298;28;20229;-66
2022/04/14 11:25:30;;;;;;;2.80;1.83;;;;;;;;;;20805510;28;20205;-66
2022/04/14 11:35:32;;;;;;;3.20;1.57;;;22.30;99.90;;;;;;20839818;28;20700;-67
2022/04/14 11:45:34;;;;;;;3.60;1.90;;;;;;;;;;20811219;28;20242;-66
2022/04/14 11:55:38;;;;;;;2.90;1.97;;;21.80;99.90;;;;;;20801956;28;20286;-67
2022/04/14 12:05:40;;;;;;;3.20;1.87;;;;;;;;;;20866703;28;20573;-67
2022/04/14 12:15:42;;;;;;;3.40;2.23;;;;;;;;;;20818152;28;20223;-67
2022/04/14 12:25:45;;;;;;;2.83;1.67;;;22.50;99.90;;;;;;20829137;28;20229;-67
2022/04/14 12:35:47;;;;;;;5.90;2.60;;;;;;;;;;20781757;28;20274;-67
2022/04/14 12:45:49;;;;;;;2.57;1.80;;;;;;;;;;20806224;28;20249;-65
2022/04/14 12:55:51;;;;;;;4.13;2.57;;;;;;;;;;20827404;28;20222;-66
2022/04/14 13:05:53;;;;;;;3.23;2.40;;;;;;;;;;20777488;28;20710;-66
2022/04/14 13:15:56;;;;;;;3.93;1.80;;;;;;;;;;20798032;28;20232;-66
2022/04/14 13:25:58;;;;;;;2.13;1.40;;;;;;;;;;20786446;28;20219;-66
2022/04/14 13:36:00;;;;;;;2.20;1.33;;;;;;;;;;20853285;28;20487;-66
2022/04/14 13:46:02;;;;;;;2.27;1.00;;;;;;;;;;20842763;28;20218;-66
2022/04/14 13:56:04;;;;;;;2.67;1.10;;;;;;;;;;20843794;28;20299;-66
2022/04/14 14:06:06;;;;;;;2.40;1.00;;;;;;;;;;20804049;28;20218;-66
2022/04/14 14:16:08;;;;;;;3.30;1.10;;;;;;;;;;20823413;28;20220;-66
2022/04/14 14:26:10;;;;;;;3.43;1.10;;;;;;;;;;20789147;28;20238;-66
2022/04/14 14:36:12;;;;;;;2.17;1.03;;;;;;;;;;20811568;28;20643;-68
2022/04/14 14:46:16;;;;;;;1.47;0.87;;;;;;;;;;20815748;28;20248;-68
2022/04/14 14:56:20;;;;;;;2.10;1.17;;;;;;;;;;20839418;28;20251;-68
2022/04/14 15:06:23;;;;;;;3.50;1.73;;;;;;;;;;20810587;28;20497;-67
2022/04/14 15:16:26;;;;;;;3.60;1.83;;;21.30;99.90;;;;;;20845590;28;20588;-68
2022/04/14 15:26:28;;;;;;;3.67;2.00;;;;;;;;;;20832788;28;20572;-68
2022/04/14 15:36:30;;;;;;;2.10;1.60;;;;;;;;;;20852689;28;20259;-66
2022/04/14 15:46:31;;;;;;;4.10;1.73;;;;;;;;;;20850266;28;20217;-67
2022/04/14 15:56:33;;;;;;;4.60;2.03;;;;;;;;;;20830340;28;20207;-68
2022/04/14 16:06:36;;;;;;;3.57;1.63;;;;;;;;;;20804518;28;20756;-67
2022/04/14 16:16:38;;;;;;;3.50;1.60;;;;;;;;;;20820298;28;20232;-66
2022/04/14 16:26:40;;;;;;;3.27;1.60;;;;;;;;;;20838243;28;20671;-66
2022/04/14 16:36:42;;;;;;;1.73;1.10;;;;;;;;;;20829302;28;20599;-65
2022/04/14 16:46:45;;;;;;;3.10;1.23;;;;;;;;;;20824442;28;20251;-65
2022/04/14 16:56:47;;;;;;;1.33;0.70;;;;;;;;;;20797050;28;20220;-66
2022/04/14 17:06:49;;;;;;;5.10;0.90;;;;;;;;;;20809202;28;20224;-65
2022/04/14 17:16:51;;;;;;;1.17;0.80;;;;;;;;;;20822184;28;20992;-66
2022/04/14 17:26:53;;;;;;;1.60;0.80;;;;;;;;;;20807687;28;20259;-66
2022/04/14 17:36:56;;;;;;;1.20;0.70;;;;;;;;;;20829942;28;20229;-66
2022/04/14 17:46:58;;;;;;;0.97;0.70;;;;;;;;;;20836871;28;20245;-66
2022/04/14 17:57:01;;;;;;;1.73;0.80;;;;;;;;;;20820636;28;20352;-66
2022/04/14 18:07:02;;;;;;;0.80;0.60;;;;;;;;;;20800742;28;20229;-66
2022/04/14 18:17:04;;;;;;;1.50;0.80;;;;;;;;;;20830823;28;20803;-65
2022/04/14 18:27:09;;;;;;;1.77;0.70;;;;;;;;;;20795952;28;20217;-66
2022/04/14 18:37:12;;;;;;;1.30;0.80;;;;;;;;;;20823635;28;20259;-66
2022/04/14 18:47:15;;;;;;;1.40;0.70;;;;;;;;;;20857063;28;20281;-66
2022/04/14 18:57:17;;;;;;;0.90;0.60;;;18.40;99.90;;;;;;20880808;28;20216;-66
2022/04/14 19:07:19;;;;;;;0.77;0.50;;;;;;;;;;20785350;28;20221;-66
2022/04/14 19:17:22;;;;;;;1.73;0.70;;;;;;;;;;20818299;28;20228;-66
2022/04/14 19:27:24;;;;;;;1.50;0.70;;;;;;;;;;20865998;28;20215;-66
2022/04/14 19:37:26;;;;;;;1.60;0.80;;;;;;;;;;20842618;28;20269;-66
2022/04/14 19:47:28;;;;;;;2.43;1.07;;;;;;;;;;20805130;28;20568;-66
2022/04/14 19:57:30;;;;;;;1.67;0.87;;;20.80;99.90;;;;;;20794659;28;20619;-66
2022/04/14 20:07:33;;;;;;;2.37;0.73;;;;;;;;;;20796690;28;20573;-66
2022/04/14 20:17:35;;;;;;;1.40;0.97;;;;;;;;;;20848632;28;20289;-66
2022/04/14 20:27:36;;;;;;;1.50;0.83;;;;;;;;;;20808376;28;20245;-66
2022/04/14 20:37:39;;;;;;;4.03;1.00;;;;;;;;;;20846722;28;20218;-66
2022/04/14 20:47:40;;;;;;;3.40;1.10;;;;;;;;;;20805253;28;20222;-66
2022/04/14 20:57:44;;;;;;;2.00;0.90;;;;;;;;;;20809453;28;20246;-66
2022/04/14 21:07:46;;;;;;;2.27;0.87;;;;;;;;;;20854721;28;20223;-66
2022/04/14 21:17:50;;;;;;;1.67;1.00;;;;;;;;;;20854491;28;20772;-66
2022/04/14 21:27:52;;;;;;;2.33;1.00;;;16.20;99.90;;;;;;20853490;28;20839;-66
2022/04/14 21:37:54;;;;;;;2.30;1.03;;;;;;;;;;20852001;28;20273;-66
2022/04/14 21:47:56;;;;;;;2.03;1.10;;;;;;;;;;20867356;28;20221;-66
2022/04/14 21:57:58;;;;;;;2.03;1.17;;;;;;;;;;20842355;28;20213;-66
2022/04/14 22:08:00;;;;;;;2.47;1.03;;;;;;;;;;20864428;28;20280;-66
2022/04/14 22:18:02;;;;;;;2.20;1.40;;;;;;;;;;20856770;28;20202;-66
2022/04/14 22:28:05;;;;;;;2.33;1.13;;;;;;;;;;20856331;28;20364;-66
2022/04/14 22:38:07;;;;;;;1.60;0.90;;;13.30;99.90;;;;;;20839993;28;20283;-66
2022/04/14 22:48:09;;;;;;;2.07;1.10;;;;;;;;;;20855717;28;20222;-66
2022/04/14 22:58:11;;;;;;;1.90;0.90;;;;;;;;;;20872123;28;20577;-66
2022/04/14 23:08:14;;;;;;;1.83;1.03;;;;;;;;;;20854793;28;20215;-66
2022/04/14 23:18:16;;;;;;;4.23;1.67;;;;;;;;;;20838423;28;20592;-66
2022/04/14 23:28:18;;;;;;;2.13;1.00;;;;;;;;;;20867973;28;20277;-66
2022/04/14 23:38:20;;;;;;;1.40;0.90;;;17.40;99.90;;;;;;20868558;28;20202;-66
2022/04/14 23:48:22;;;;;;;1.43;1.00;;;;;;;;;;20867628;28;20218;-67
2022/04/14 23:58:24;;;;;;;3.03;1.47;;;;;;;;;;20883682;28;20210;-68
